createdAt,value
2019-05-15T15:20:44.748Z,100930.57
2019-05-15T15:23:22.591Z,100932.12
2019-05-15T15:26:02.114Z,100924.86
2019-05-15T15:28:34.069Z,100915.87
2019-05-15T15:31:08.232Z,100900.38
2019-05-15T15:33:48.593Z,100894.89
2019-05-15T15:36:22.060Z,100891.27
2019-05-15T15:39:03.825Z,100889.44
2019-05-15T15:41:45.129Z,100892.14
2019-05-15T15:44:17.992Z,100888.78
2019-05-15T15:46:51.442Z,100886.50
2019-05-15T15:49:24.928Z,100889.39
2019-05-15T15:52:04.145Z,100896.27
2019-05-15T15:54:53.467Z,100891.72
2019-05-15T15:57:35.046Z,100906.45
2019-05-15T16:00:18.298Z,100898.84
2019-05-15T16:05:29.674Z,100894.70
2019-05-15T16:08:02.781Z,100908.42
2019-05-15T16:10:37.743Z,100908.31
2019-05-15T16:13:23.713Z,100912.65
2019-05-15T16:15:57.964Z,100913.79
2019-05-15T16:18:33.107Z,100908.42
2019-05-15T16:21:08.180Z,100909.61
2019-05-15T16:23:48.063Z,100910.22
2019-05-15T16:26:20.937Z,100911.91
2019-05-15T16:28:58.010Z,100910.80
2019-05-15T16:31:39.540Z,100905.16
2019-05-15T16:34:12.616Z,100907.46
2019-05-15T16:36:58.479Z,100907.28
2019-05-15T16:39:38.397Z,100910.98
2019-05-15T16:42:11.291Z,100904.11
2019-05-15T16:44:43.508Z,100909.16
2019-05-15T16:47:19.561Z,100901.27
2019-05-15T16:49:58.832Z,100901.27
2019-05-15T16:52:35.211Z,100894.66
2019-05-15T16:55:12.452Z,100901.98
2019-05-15T16:57:52.794Z,100905.16
2019-05-15T17:00:28.981Z,100900.39
2019-05-15T17:03:13.726Z,100898.09
2019-05-15T17:05:38.964Z,100891.27
2019-05-15T17:08:19.079Z,100884.44
2019-05-15T17:10:55.686Z,100881.32
2019-05-15T17:13:41.542Z,100871.19
2019-05-15T17:16:27.548Z,100861.31
2019-05-15T17:19:12.814Z,100852.44
2019-05-15T17:21:48.221Z,100852.38
2019-05-15T17:24:27.754Z,100843.94
2019-05-15T17:27:08.558Z,100840.81
2019-05-15T17:29:40.029Z,100841.75
2019-05-15T17:32:13.450Z,100831.74
2019-05-15T17:34:53.947Z,100823.86
2019-05-15T17:37:28.703Z,100818.59
2019-05-15T17:40:05.052Z,100808.73
2019-05-15T17:42:39.035Z,100799.97
2019-05-15T17:45:21.031Z,100790.79
2019-05-15T17:47:53.676Z,100787.04
2019-05-15T17:50:28.323Z,100781.16
2019-05-15T17:53:01.430Z,100780.53
2019-05-15T17:55:38.408Z,100774.48
2019-05-15T17:58:19.009Z,100778.98
2019-05-15T18:00:51.932Z,100770.23
2019-05-15T18:03:29.526Z,100772.52
2019-05-15T18:06:10.141Z,100762.78
2019-05-15T18:08:50.035Z,100750.45
2019-05-15T18:11:23.581Z,100752.20
2019-05-15T18:13:58.217Z,100743.72
2019-05-15T18:16:30.824Z,100737.45
2019-05-15T18:19:05.357Z,100737.95
2019-05-15T18:21:45.771Z,100735.84
2019-05-15T18:24:18.734Z,100731.45
2019-05-15T18:26:52.364Z,100723.84
2019-05-15T18:29:35.355Z,100722.14
2019-05-15T18:32:09.118Z,100725.07
2019-05-15T18:34:42.355Z,100723.09
2019-05-15T18:37:33.928Z,100724.86
2019-05-15T18:40:09.012Z,100721.02
2019-05-15T18:42:49.337Z,100718.72
2019-05-15T18:45:21.049Z,100715.41
2019-05-15T18:47:59.959Z,100716.28
2019-05-15T18:50:32.581Z,100714.84
2019-05-15T18:53:05.278Z,100709.23
2019-05-15T18:55:38.561Z,100708.03
2019-05-15T18:58:11.519Z,100707.67
2019-05-15T19:00:44.724Z,100705.20
2019-05-15T19:03:22.642Z,100701.89
2019-05-15T19:05:58.420Z,100702.53
2019-05-15T19:08:31.275Z,100702.06
2019-05-15T19:11:05.094Z,100696.07
2019-05-15T19:13:38.911Z,100696.56
2019-05-15T19:16:11.565Z,100686.64
2019-05-15T19:18:44.011Z,100691.27
2019-05-15T19:21:20.130Z,100687.96
2019-05-15T19:23:53.598Z,100686.14
2019-05-15T19:26:28.798Z,100682.28
2019-05-15T19:29:09.063Z,100677.52
2019-05-15T19:31:49.217Z,100682.08
2019-05-15T19:37:12.420Z,100681.91
2019-05-15T19:39:47.843Z,100678.72
2019-05-15T19:42:19.354Z,100675.14
2019-05-15T19:44:52.680Z,100668.91
2019-05-15T19:47:25.527Z,100665.23
2019-05-15T19:50:08.949Z,100658.44
2019-05-15T19:52:41.268Z,100659.91
2019-05-15T19:55:14.036Z,100668.88
2019-05-15T19:57:48.140Z,100669.91
2019-05-15T20:00:21.295Z,100666.28
2019-05-15T20:02:54.824Z,100662.65
2019-05-15T20:05:29.052Z,100660.92
2019-05-15T20:08:02.408Z,100667.59
2019-05-15T20:10:35.253Z,100669.09
2019-05-15T20:13:14.922Z,100675.03
2019-05-15T20:15:49.445Z,100675.09
2019-05-15T20:18:33.682Z,100673.98
2019-05-15T20:21:08.833Z,100677.11
2019-05-15T20:23:41.288Z,100684.21
2019-05-15T20:26:13.933Z,100679.38
2019-05-15T20:28:53.829Z,100679.86
2019-05-15T20:31:28.432Z,100673.53
2019-05-15T20:34:05.807Z,100678.86
2019-05-15T20:36:38.754Z,100678.22
2019-05-15T20:39:12.712Z,100676.39
2019-05-15T20:41:50.153Z,100674.09
